Time;durP1;ratioP1;P1;durP2;ratioP2;P2;SDS_P1;SDS_P2;PMS_P1;PMS_P2;Temp;Humidity;BMP_temperature;BMP_pressure;BME280_temperature;BME280_humidity;BME280_pressure;Samples;Min_cycle;Max_cycle;Signal;HPM_P1;HPM_P2
2022/09/29 00:01:34;;;;;;;;;;;;;;;5.44;90.64;97768.97;8220435;28;20407;-78
2022/09/29 00:05:35;;;;;;;;;;;;;;;5.41;90.85;97772.44;8251521;28;20461;-77
2022/09/29 00:09:42;;;;;;;;;;;;;;;5.39;90.76;97775.91;8239811;28;20344;-77
2022/09/29 00:13:45;;;;;;;;;;;;;;;5.38;90.97;97774.16;8224927;28;19953;-78
2022/09/29 00:17:46;;;;;;;;;;;;;;;5.40;91.63;97768.16;8242450;28;19987;-77
2022/09/29 00:22:07;;;;;;;;;;;;;;;5.39;91.05;97768.16;8239178;28;19937;-78
2022/09/29 00:26:17;;;;;;;;;;;;;;;5.35;91.02;97769.03;8223081;28;20508;-77
2022/09/29 00:30:18;;;;;;;;;;;;;;;5.31;91.10;97768.22;8222453;28;19926;-77
2022/09/29 00:34:26;;;;;;;;;;;;;;;5.36;91.90;97769.03;8215721;28;20561;-77
2022/09/29 00:38:28;;;;;;;;;;;;;;;5.39;91.69;97769.03;8209256;28;20000;-77
2022/09/29 00:42:37;;;;;;;;;;;;;;;5.41;91.79;97767.28;8236719;28;19984;-77
2022/09/29 00:46:59;;;;;;;;;;;;;;;5.43;91.81;97769.84;8211137;28;19926;-77
2022/09/29 00:51:01;;;;;;;;;;;;;;;5.45;92.03;97773.25;8201878;28;19926;-78
2022/09/29 00:55:16;;;;;;;;;;;;;;;5.44;92.16;97772.41;8211900;28;19926;-78
2022/09/29 00:59:30;;;;;;;;;;;;;;;5.51;92.94;97769.75;8211850;28;19930;-77
2022/09/29 01:03:34;;;;;;;;;;;;;;;5.58;92.60;97753.38;8223366;28;20383;-77
2022/09/29 01:07:36;;;;;;;;;;;;;;;5.67;92.98;97750.69;8245339;28;20506;-77
2022/09/29 01:11:37;;;;;;;;;;;;;;;5.76;92.81;97740.31;8228190;28;19930;-78
2022/09/29 01:15:38;;;;;;;;;;;;;;;5.79;92.96;97749.72;8236726;28;19930;-77
2022/09/29 01:19:49;;;;;;;;;;;;;;;5.79;92.37;97747.97;8240749;28;20647;-78
2022/09/29 01:24:04;;;;;;;;;;;;;;;5.82;92.67;97742.78;8231670;28;20040;-77
2022/09/29 01:28:12;;;;;;;;;;;;;;;5.86;92.69;97744.44;8238117;28;19973;-78
2022/09/29 01:32:13;;;;;;;;;;;;;;;5.92;93.05;97744.41;8238720;28;19926;-77
2022/09/29 01:36:35;;;;;;;;;;;;;;;5.91;92.34;97737.53;8239984;28;19926;-78
2022/09/29 01:40:53;;;;;;;;;;;;;;;5.93;92.56;97733.25;8233818;28;20041;-77
2022/09/29 01:45:01;;;;;;;;;;;;;;;5.84;92.14;97730.75;8229440;28;20477;-77
2022/09/29 01:49:03;;;;;;;;;;;;;;;5.71;92.20;97735.19;8254922;28;19925;-77
2022/09/29 01:53:08;;;;;;;;;;;;;;;5.75;92.09;97730.88;8236692;28;20306;-77
2022/09/29 01:57:14;;;;;;;;;;;;;;;5.79;92.34;97736.84;8236183;28;19925;-78
2022/09/29 02:01:16;;;;;;;;;;;;;;;5.76;92.51;97742.88;8225347;28;20299;-77
2022/09/29 02:05:25;;;;;;;;;;;;;;;5.79;92.50;97740.25;8246294;28;19933;-78
2022/09/29 02:09:29;;;;;;;;;;;;;;;5.83;93.01;97743.66;8247796;28;20318;-77
2022/09/29 02:13:34;;;;;;;;;;;;;;;5.68;92.60;97748.09;8247189;28;19948;-78
2022/09/29 02:17:38;;;;;;;;;;;;;;;5.75;93.06;97743.75;8230740;28;19936;-78
2022/09/29 02:21:39;;;;;;;;;;;;;;;5.84;93.51;97741.03;8221482;28;19993;-78
2022/09/29 02:25:42;;;;;;;;;;;;;;;5.98;94.09;97739.19;8217880;28;20815;-77
2022/09/29 02:29:43;;;;;;;;;;;;;;;6.00;93.67;97744.31;8219966;28;19925;-77
2022/09/29 02:33:45;;;;;;;;;;;;;;;6.03;94.13;97744.28;8223985;28;19954;-78
2022/09/29 02:37:53;;;;;;;;;;;;;;;6.10;93.88;97743.31;8227884;28;19926;-77
2022/09/29 02:42:00;;;;;;;;;;;;;;;6.12;93.84;97739.00;8225971;28;20236;-78
2022/09/29 02:46:20;;;;;;;;;;;;;;;6.12;93.68;97730.44;8224010;28;20310;-77
2022/09/29 02:50:34;;;;;;;;;;;;;;;6.21;93.38;97738.03;8251460;28;19926;-77
2022/09/29 02:54:38;;;;;;;;;;;;;;;6.26;93.51;97731.06;8248626;28;19926;-78
2022/09/29 02:58:56;;;;;;;;;;;;;;;6.26;93.59;97726.78;8245467;28;19930;-77
2022/09/29 03:02:58;;;;;;;;;;;;;;;6.27;93.03;97743.09;8245870;28;19925;-77
2022/09/29 03:07:05;;;;;;;;;;;;;;;6.23;93.27;97731.13;8250892;28;20371;-78
2022/09/29 03:11:07;;;;;;;;;;;;;;;6.32;93.54;97738.75;8246982;28;19922;-77
2022/09/29 03:15:11;;;;;;;;;;;;;;;6.38;93.81;97736.06;8246964;28;19988;-77
2022/09/29 03:19:12;;;;;;;;;;;;;;;6.28;93.58;97739.63;8223004;28;19930;-78
2022/09/29 03:23:14;;;;;;;;;;;;;;;6.30;93.69;97741.34;8239554;28;19931;-77
2022/09/29 03:27:15;;;;;;;;;;;;;;;6.34;93.66;97730.09;8218847;28;20462;-77
2022/09/29 03:31:17;;;;;;;;;;;;;;;6.37;93.96;97726.63;8230369;28;20343;-77
2022/09/29 03:35:18;;;;;;;;;;;;;;;6.46;94.23;97731.63;8250619;28;20656;-77
2022/09/29 03:39:20;;;;;;;;;;;;;;;6.51;94.46;97734.16;8252685;28;19926;-77
2022/09/29 03:43:21;;;;;;;;;;;;;;;6.49;94.20;97730.75;8232648;28;19930;-78
2022/09/29 03:47:30;;;;;;;;;;;;;;;6.45;94.08;97735.09;8227229;28;19937;-75
2022/09/29 03:51:32;;;;;;;;;;;;;;;6.49;94.10;97741.94;8216000;28;20735;-77
2022/09/29 03:55:33;;;;;;;;;;;;;;;6.51;94.09;97740.19;8219063;28;19929;-78
2022/09/29 03:59:34;;;;;;;;;;;;;;;6.55;93.64;97748.72;8206740;28;19933;-77
2022/09/29 04:03:35;;;;;;;;;;;;;;;6.56;93.64;97751.25;8212182;28;19930;-77
2022/09/29 04:07:37;;;;;;;;;;;;;;;6.56;93.53;97756.41;8212932;28;19980;-78
2022/09/29 04:11:38;;;;;;;;;;;;;;;6.56;93.53;97753.84;8220832;28;19943;-77
2022/09/29 04:15:39;;;;;;;;;;;;;;;6.59;93.35;97750.34;8218959;28;19976;-78
2022/09/29 04:19:41;;;;;;;;;;;;;;;6.60;93.80;97757.22;8219407;28;19960;-77
2022/09/29 04:23:43;;;;;;;;;;;;;;;6.63;93.56;97760.59;8232999;28;19926;-78
2022/09/29 04:27:44;;;;;;;;;;;;;;;6.66;93.63;97760.59;8230412;28;19930;-78
2022/09/29 04:31:45;;;;;;;;;;;;;;;6.72;94.17;97769.09;8216950;28;19992;-78
2022/09/29 04:35:54;;;;;;;;;;;;;;;6.73;94.50;97765.63;8221598;28;20115;-77
2022/09/29 04:39:56;;;;;;;;;;;;;;;6.77;94.40;97759.53;8217208;28;19926;-77
2022/09/29 04:43:57;;;;;;;;;;;;;;;6.81;94.40;97763.78;8214926;28;19926;-78
2022/09/29 04:47:59;;;;;;;;;;;;;;;6.82;94.16;97776.69;8218248;28;20001;-78
2022/09/29 04:52:00;;;;;;;;;;;;;;;6.83;94.38;97768.06;8219650;28;19926;-77
2022/09/29 04:56:05;;;;;;;;;;;;;;;6.85;94.19;97770.63;8227379;28;19925;-77
2022/09/29 05:00:14;;;;;;;;;;;;;;;6.88;94.21;97767.97;8210631;28;19984;-77
2022/09/29 05:04:15;;;;;;;;;;;;;;;6.84;94.06;97771.50;8216016;28;19934;-78
2022/09/29 05:08:16;;;;;;;;;;;;;;;6.83;93.80;97769.78;8230743;28;20327;-77
2022/09/29 05:12:18;;;;;;;;;;;;;;;6.89;94.15;97780.00;8217172;28;19993;-77
2022/09/29 05:16:19;;;;;;;;;;;;;;;6.94;94.09;97785.94;8213129;28;20016;-77
2022/09/29 05:20:20;;;;;;;;;;;;;;;6.95;93.93;97792.78;8215216;28;19926;-78
2022/09/29 05:24:22;;;;;;;;;;;;;;;6.91;93.88;97786.84;8233723;28;20044;-77
2022/09/29 05:28:29;;;;;;;;;;;;;;;6.89;93.91;97786.00;8217614;28;20323;-78
2022/09/29 05:32:31;;;;;;;;;;;;;;;6.85;93.78;97783.50;8210213;28;19977;-77
2022/09/29 05:36:39;;;;;;;;;;;;;;;6.82;93.88;97789.56;8220439;28;19925;-77
2022/09/29 05:40:40;;;;;;;;;;;;;;;6.82;94.27;97791.28;8218958;28;20928;-77
2022/09/29 05:44:41;;;;;;;;;;;;;;;6.78;94.09;97800.78;8219170;28;19926;-78
2022/09/29 05:48:42;;;;;;;;;;;;;;;6.80;94.34;97788.72;8218201;28;19930;-78
2022/09/29 05:52:48;;;;;;;;;;;;;;;6.90;94.79;97802.34;8226281;28;19976;-78
2022/09/29 05:56:49;;;;;;;;;;;;;;;6.97;95.19;97806.53;8227208;28;19937;-77
2022/09/29 06:00:50;;;;;;;;;;;;;;;7.03;95.25;97809.03;8225250;28;19993;-78
2022/09/29 06:04:52;;;;;;;;;;;;;;;7.06;95.20;97816.72;8223454;28;19930;-78
2022/09/29 06:09:00;;;;;;;;;;;;;;;7.12;95.10;97813.16;8222819;28;19930;-78
2022/09/29 06:13:08;;;;;;;;;;;;;;;7.17;94.95;97801.88;8233115;28;19983;-78
2022/09/29 06:17:09;;;;;;;;;;;;;;;7.25;95.21;97810.38;8218573;28;19926;-78
2022/09/29 06:21:22;;;;;;;;;;;;;;;7.33;94.81;97817.97;8227745;28;19929;-75
2022/09/29 06:25:30;;;;;;;;;;;;;;;7.42;95.23;97810.09;8221062;28;19926;-77
2022/09/29 06:29:31;;;;;;;;;;;;;;;7.54;95.44;97809.88;8217498;28;19941;-77
2022/09/29 06:33:39;;;;;;;;;;;;;;;7.68;95.13;97808.75;8214844;28;20016;-77
2022/09/29 06:37:42;;;;;;;;;;;;;;;7.78;94.99;97811.16;8237314;28;19930;-77
2022/09/29 06:41:53;;;;;;;;;;;;;;;7.88;94.98;97815.25;8221810;28;19930;-76
2022/09/29 06:45:54;;;;;;;;;;;;;;;7.94;94.63;97816.88;8213169;28;19934;-77
2022/09/29 06:49:57;;;;;;;;;;;;;;;7.99;94.75;97806.47;8244349;28;20544;-77
2022/09/29 06:54:19;;;;;;;;;;;;;;;8.05;94.66;97803.75;8221070;28;19961;-77
2022/09/29 06:58:22;;;;;;;;;;;;;;;8.11;94.20;97803.63;8251576;28;20552;-77
2022/09/29 07:02:23;;;;;;;;;;;;;;;8.16;94.36;97809.56;8231696;28;20768;-78
2022/09/29 07:06:25;;;;;;;;;;;;;;;8.23;94.46;97811.13;8246496;28;19925;-76
2022/09/29 07:10:26;;;;;;;;;;;;;;;8.30;94.17;97830.81;8243766;28;19933;-77
2022/09/29 07:14:27;;;;;;;;;;;;;;;8.25;94.42;97840.38;8265712;28;20575;-77
2022/09/29 07:18:29;;;;;;;;;;;;;;;8.21;94.90;97841.34;8239343;28;20286;-77
2022/09/29 07:22:31;;;;;;;;;;;;;;;8.28;95.05;97853.28;8234983;28;20308;-77
2022/09/29 07:26:39;;;;;;;;;;;;;;;8.39;95.60;97851.34;8243256;28;19925;-76
2022/09/29 07:30:40;;;;;;;;;;;;;;;8.55;95.43;97844.13;8239870;28;19929;-77
2022/09/29 07:34:42;;;;;;;;;;;;;;;8.72;94.97;97846.34;8213854;28;19926;-77
2022/09/29 07:38:50;;;;;;;;;;;;;;;8.86;94.97;97852.06;8196796;28;19930;-77
2022/09/29 07:42:51;;;;;;;;;;;;;;;8.99;94.74;97844.88;8205983;28;19930;-77
2022/09/29 07:46:52;;;;;;;;;;;;;;;9.11;94.37;97851.50;8214193;28;19994;-77
2022/09/29 07:51:11;;;;;;;;;;;;;;;9.26;93.58;97848.56;8239702;28;19981;-77
2022/09/29 07:55:12;;;;;;;;;;;;;;;9.39;92.50;97852.56;8239350;28;19930;-77
2022/09/29 07:59:14;;;;;;;;;;;;;;;9.49;92.27;97855.75;8238882;28;19980;-77
2022/09/29 08:03:15;;;;;;;;;;;;;;;9.55;91.26;97859.06;8225846;28;19931;-77
2022/09/29 08:07:16;;;;;;;;;;;;;;;9.56;90.49;97865.94;8205838;28;19926;-77
2022/09/29 08:11:19;;;;;;;;;;;;;;;9.54;90.30;97875.50;8210986;28;20220;-77
2022/09/29 08:15:32;;;;;;;;;;;;;;;9.52;90.26;97879.88;8204669;28;19926;-77
2022/09/29 08:19:40;;;;;;;;;;;;;;;9.46;90.01;97874.81;8246974;28;19953;-77
2022/09/29 08:23:42;;;;;;;;;;;;;;;9.43;89.75;97877.50;8243406;28;19925;-77
2022/09/29 08:27:44;;;;;;;;;;;;;;;9.43;90.57;97884.41;8239763;28;19936;-77
2022/09/29 08:31:56;;;;;;;;;;;;;;;9.40;91.00;97887.94;8253105;28;19929;-77
2022/09/29 08:35:57;;;;;;;;;;;;;;;9.35;90.83;97897.56;8248200;28;20391;-77
2022/09/29 08:39:59;;;;;;;;;;;;;;;9.31;90.73;97901.09;8251229;28;19926;-77
2022/09/29 08:44:14;;;;;;;;;;;;;;;9.21;91.00;97899.63;8256219;28;19926;-74
2022/09/29 08:48:38;;;;;;;;;;;;;;;9.19;91.81;97906.56;8264098;28;19926;-75
2022/09/29 08:52:55;;;;;;;;;;;;;;;9.23;91.96;97910.78;8230527;28;20291;-75
2022/09/29 08:56:57;;;;;;;;;;;;;;;9.27;92.93;97912.41;8246995;28;19926;-75
2022/09/29 09:01:21;;;;;;;;;;;;;;;9.30;93.60;97913.19;8239834;28;20063;-76
2022/09/29 09:05:48;;;;;;;;;;;;;;;9.36;93.08;97910.47;8234216;28;19930;-76
2022/09/29 09:10:11;;;;;;;;;;;;;;;9.42;94.11;97908.63;8248609;28;19930;-76
2022/09/29 09:14:21;;;;;;;;;;;;;;;9.46;94.28;97916.28;8227725;28;19926;-76
2022/09/29 09:18:49;;;;;;;;;;;;;;;9.52;93.97;97915.28;8236998;28;19926;-75
2022/09/29 09:22:56;;;;;;;;;;;;;;;9.61;94.73;97912.47;8245165;28;19926;-77
2022/09/29 09:27:09;;;;;;;;;;;;;;;9.79;94.51;97913.75;8247357;28;19926;-77
2022/09/29 09:31:18;;;;;;;;;;;;;;;9.98;94.41;97904.63;8249723;28;19925;-77
2022/09/29 09:35:33;;;;;;;;;;;;;;;10.22;94.50;97916.97;8267187;28;19987;-76
2022/09/29 09:40:23;;;;;;;;;;;;;;;10.44;93.55;97911.22;8246438;28;19930;-75
2022/09/29 09:44:37;;;;;;;;;;;;;;;10.67;93.29;97905.38;8215160;28;19925;-76
2022/09/29 09:48:43;;;;;;;;;;;;;;;10.85;91.88;97915.22;8233217;28;19925;-76
2022/09/29 09:52:51;;;;;;;;;;;;;;;10.98;90.61;97908.78;8243027;28;19998;-75
2022/09/29 09:57:07;;;;;;;;;;;;;;;11.14;90.03;97907.41;8244926;28;19961;-76
2022/09/29 10:01:11;;;;;;;;;;;;;;;11.36;89.08;97911.94;8243004;28;20016;-75
2022/09/29 10:05:14;;;;;;;;;;;;;;;11.61;87.28;97912.00;8245767;28;19926;-75
2022/09/29 10:09:22;;;;;;;;;;;;;;;11.82;86.20;97911.34;8237253;28;19930;-75
2022/09/29 10:13:25;;;;;;;;;;;;;;;12.00;85.55;97913.31;8226846;28;20696;-75
2022/09/29 10:17:32;;;;;;;;;;;;;;;12.14;85.31;97922.41;8239292;28;20323;-76
2022/09/29 10:21:34;;;;;;;;;;;;;;;12.20;83.85;97917.84;8245288;28;20016;-77
2022/09/29 10:25:36;;;;;;;;;;;;;;;12.32;84.20;97917.41;8229303;28;19933;-76
2022/09/29 10:29:37;;;;;;;;;;;;;;;12.39;84.04;97921.53;8240611;28;20456;-77
2022/09/29 10:33:44;;;;;;;;;;;;;;;12.46;83.23;97924.75;8200593;28;19953;-77
2022/09/29 10:37:47;;;;;;;;;;;;;;;12.57;84.33;97914.81;8211072;28;20270;-77
2022/09/29 10:41:51;;;;;;;;;;;;;;;12.71;84.46;97915.13;8216397;28;20691;-77
2022/09/29 10:45:57;;;;;;;;;;;;;;;12.83;83.88;97923.41;8215955;28;19922;-77
2022/09/29 10:50:08;;;;;;;;;;;;;;;12.85;81.53;97926.81;8258571;28;19956;-76
2022/09/29 10:54:14;;;;;;;;;;;;;;;12.85;80.22;97924.19;8258626;28;19926;-76
2022/09/29 10:58:19;;;;;;;;;;;;;;;12.88;79.79;97931.91;8255722;28;19945;-76
2022/09/29 11:02:42;;;;;;;;;;;;;;;12.87;79.53;97925.00;8224124;28;19930;-76
2022/09/29 11:06:44;;;;;;;;;;;;;;;12.90;81.44;97928.31;8203965;28;19926;-76
2022/09/29 11:10:45;;;;;;;;;;;;;;;12.86;81.07;97933.72;8207557;28;19926;-76
2022/09/29 11:14:47;;;;;;;;;;;;;;;12.80;81.85;97937.41;8211748;28;19930;-76
2022/09/29 11:18:51;;;;;;;;;;;;;;;12.67;82.83;97937.00;8230917;28;19933;-76
2022/09/29 11:23:07;;;;;;;;;;;;;;;12.38;85.19;97944.97;8259624;28;19949;-76
2022/09/29 11:27:34;;;;;;;;;;;;;;;12.19;85.75;97949.97;8247605;28;19926;-76
2022/09/29 11:31:49;;;;;;;;;;;;;;;12.05;86.10;97957.41;8216154;28;20531;-77
2022/09/29 11:35:59;;;;;;;;;;;;;;;11.95;86.68;97953.41;8213638;28;19990;-76
2022/09/29 11:40:10;;;;;;;;;;;;;;;11.95;87.18;97953.41;8222048;28;19989;-77
2022/09/29 11:44:11;;;;;;;;;;;;;;;11.90;87.51;97958.75;8223557;28;19926;-76
2022/09/29 11:48:31;;;;;;;;;;;;;;;11.90;87.19;97963.13;8235434;28;19926;-76
2022/09/29 11:52:49;;;;;;;;;;;;;;;11.92;87.88;97964.75;8235445;28;19929;-76
2022/09/29 11:56:59;;;;;;;;;;;;;;;11.95;87.33;97971.59;8256536;28;19925;-76
2022/09/29 12:01:06;;;;;;;;;;;;;;;12.04;88.32;97971.31;8254238;28;19925;-77
2022/09/29 12:05:22;;;;;;;;;;;;;;;12.12;88.54;97966.69;8249668;28;19953;-77
2022/09/29 12:09:36;;;;;;;;;;;;;;;12.18;88.15;97968.22;8258267;28;19980;-76
2022/09/29 12:13:39;;;;;;;;;;;;;;;12.19;87.36;97969.94;8248406;28;19996;-76
2022/09/29 12:17:46;;;;;;;;;;;;;;;12.23;87.05;97971.56;8259557;28;19926;-76
2022/09/29 12:21:49;;;;;;;;;;;;;;;12.30;87.16;97968.69;8248822;28;20392;-76
2022/09/29 12:25:59;;;;;;;;;;;;;;;12.42;86.32;97966.56;8250136;28;19931;-77
2022/09/29 12:30:34;;;;;;;;;;;;;;;12.61;86.70;97973.69;8247419;28;20432;-76
2022/09/29 12:34:54;;;;;;;;;;;;;;;12.77;85.26;97963.56;8223828;28;20032;-76
2022/09/29 12:39:00;;;;;;;;;;;;;;;12.79;83.23;97964.34;8261755;28;20763;-76
2022/09/29 12:43:11;;;;;;;;;;;;;;;12.80;82.60;97963.44;8229478;28;19930;-76
2022/09/29 12:47:18;;;;;;;;;;;;;;;12.81;82.65;97967.75;8240257;28;19937;-76
2022/09/29 12:51:29;;;;;;;;;;;;;;;12.86;83.14;97964.97;8260707;28;20719;-77
2022/09/29 12:55:39;;;;;;;;;;;;;;;12.89;82.02;97962.25;8244524;28;19926;-76
2022/09/29 12:59:52;;;;;;;;;;;;;;;12.90;80.95;97958.75;8244112;28;20322;-76
2022/09/29 13:04:29;;;;;;;;;;;;;;;12.94;80.83;97953.38;8246259;28;19984;-76
2022/09/29 13:08:33;;;;;;;;;;;;;;;13.19;79.80;97952.47;8173047;28;19926;-77
2022/09/29 13:12:34;;;;;;;;;;;;;;;13.31;79.22;97946.81;8246489;28;19988;-76
2022/09/29 13:16:45;;;;;;;;;;;;;;;13.37;78.88;97953.53;8244325;28;19925;-77
2022/09/29 13:21:17;;;;;;;;;;;;;;;13.36;77.34;97952.69;8235684;28;19926;-77
2022/09/29 13:25:37;;;;;;;;;;;;;;;13.36;77.88;97955.28;8236514;28;19926;-76
2022/09/29 13:29:54;;;;;;;;;;;;;;;13.34;78.02;97956.28;8234904;28;20359;-76
2022/09/29 13:33:58;;;;;;;;;;;;;;;13.32;78.26;97956.34;8228558;28;19930;-76
2022/09/29 13:38:10;;;;;;;;;;;;;;;13.25;77.29;97960.91;8236157;28;19926;-76
2022/09/29 13:42:24;;;;;;;;;;;;;;;13.20;77.77;97962.84;8235053;28;19926;-76
2022/09/29 13:46:35;;;;;;;;;;;;;;;13.16;78.65;97968.22;8226267;28;20279;-76
2022/09/29 13:50:44;;;;;;;;;;;;;;;13.12;77.76;97964.03;8207953;28;19984;-77
2022/09/29 13:54:52;;;;;;;;;;;;;;;13.11;78.21;97970.16;8202334;28;19926;-76
2022/09/29 13:58:58;;;;;;;;;;;;;;;13.09;79.33;97970.19;8217384;28;19926;-76
2022/09/29 14:03:01;;;;;;;;;;;;;;;13.14;79.61;97973.47;8217237;28;19926;-76
2022/09/29 14:07:03;;;;;;;;;;;;;;;13.15;78.86;97988.22;8220789;28;19926;-76
2022/09/29 14:11:31;;;;;;;;;;;;;;;13.19;78.47;97987.22;8224562;28;19977;-76
2022/09/29 14:15:42;;;;;;;;;;;;;;;13.25;77.40;97980.91;8219940;28;19973;-76
2022/09/29 14:19:53;;;;;;;;;;;;;;;13.31;76.23;97983.31;8243374;28;19926;-76
2022/09/29 14:23:55;;;;;;;;;;;;;;;13.52;76.86;97979.03;8237993;28;20512;-77
2022/09/29 14:28:00;;;;;;;;;;;;;;;13.84;76.10;97978.59;8241591;28;20142;-76
2022/09/29 14:32:02;;;;;;;;;;;;;;;14.06;72.47;97988.16;8245149;28;19940;-76
2022/09/29 14:36:13;;;;;;;;;;;;;;;14.09;67.34;97988.88;8242286;28;20344;-76
2022/09/29 14:40:27;;;;;;;;;;;;;;;14.02;68.43;97990.06;8245564;28;20256;-76
2022/09/29 14:53:24;;;;;;;;;;;;;;;13.64;70.37;97981.13;8204241;28;19926;-76
2022/09/29 14:57:45;;;;;;;;;;;;;;;13.37;72.12;97990.03;8202852;28;19926;-77
2022/09/29 15:02:05;;;;;;;;;;;;;;;12.96;73.53;97992.41;8224794;28;20484;-77
2022/09/29 15:06:11;;;;;;;;;;;;;;;12.79;75.13;98000.81;8260157;28;19940;-77
2022/09/29 15:10:19;;;;;;;;;;;;;;;12.61;76.79;98004.94;8248939;28;20522;-77
2022/09/29 15:14:25;;;;;;;;;;;;;;;12.43;77.36;98010.75;8252564;28;19936;-77
2022/09/29 15:18:32;;;;;;;;;;;;;;;12.30;77.96;98009.47;8222945;28;19958;-77
2022/09/29 15:22:33;;;;;;;;;;;;;;;12.20;79.40;98011.50;8213591;28;19988;-77
2022/09/29 15:26:35;;;;;;;;;;;;;;;12.16;80.24;98016.88;8209670;28;19931;-76
2022/09/29 15:30:37;;;;;;;;;;;;;;;12.24;80.54;98017.50;8211216;28;19941;-77
2022/09/29 15:34:38;;;;;;;;;;;;;;;12.40;80.77;98029.09;8253621;28;20467;-77
2022/09/29 15:38:40;;;;;;;;;;;;;;;12.31;80.71;98030.25;8250433;28;19925;-77
2022/09/29 15:42:41;;;;;;;;;;;;;;;12.21;81.42;98034.06;8252229;28;19940;-77
2022/09/29 15:46:50;;;;;;;;;;;;;;;12.08;81.86;98041.41;8251456;28;19930;-77
2022/09/29 15:50:57;;;;;;;;;;;;;;;11.99;82.65;98036.47;8264377;28;19926;-77
2022/09/29 15:54:59;;;;;;;;;;;;;;;11.96;84.55;98056.53;8268401;28;19933;-77
2022/09/29 15:59:05;;;;;;;;;;;;;;;11.95;84.18;98052.25;8258218;28;19980;-77
2022/09/29 16:03:11;;;;;;;;;;;;;;;11.88;84.53;98062.00;8262449;28;20016;-77
2022/09/29 16:07:21;;;;;;;;;;;;;;;11.88;85.96;98072.41;8244594;28;20247;-77
2022/09/29 16:11:31;;;;;;;;;;;;;;;11.89;86.05;98068.06;8275662;28;19926;-77
2022/09/29 16:15:34;;;;;;;;;;;;;;;11.89;86.42;98074.09;8257733;28;19933;-77
2022/09/29 16:19:36;;;;;;;;;;;;;;;12.38;84.59;98080.34;8264450;28;19932;-77
2022/09/29 16:24:01;;;;;;;;;;;;;;;12.23;84.62;98091.25;8226840;28;19926;-77
2022/09/29 16:28:06;;;;;;;;;;;;;;;12.00;84.86;98098.00;8223355;28;19925;-77
2022/09/29 16:32:49;;;;;;;;;;;;;;;11.83;86.00;98095.06;8217649;28;20088;-77
2022/09/29 16:36:53;;;;;;;;;;;;;;;11.67;87.15;98099.00;8104127;28;19930;-76
2022/09/29 16:40:55;;;;;;;;;;;;;;;11.54;87.80;98092.47;8225443;28;19925;-77
2022/09/29 16:44:57;;;;;;;;;;;;;;;11.41;87.73;98092.81;8218324;28;19973;-77
2022/09/29 16:48:59;;;;;;;;;;;;;;;11.20;88.44;98107.28;8218182;28;20615;-77
2022/09/29 16:53:00;;;;;;;;;;;;;;;11.05;88.61;98101.63;8223304;28;19930;-77
2022/09/29 16:57:33;;;;;;;;;;;;;;;11.02;89.04;98104.31;8251844;28;19932;-76
2022/09/29 17:01:34;;;;;;;;;;;;;;;10.97;89.53;98109.66;8240823;28;20005;-76
2022/09/29 17:05:36;;;;;;;;;;;;;;;10.87;89.49;98109.03;8252171;28;19926;-76
2022/09/29 17:09:38;;;;;;;;;;;;;;;10.79;90.15;98108.38;8255025;28;19929;-76
2022/09/29 17:13:39;;;;;;;;;;;;;;;10.68;90.15;98117.34;8242642;28;19937;-76
2022/09/29 17:17:43;;;;;;;;;;;;;;;10.61;90.46;98123.56;8252916;28;20549;-76
2022/09/29 17:21:44;;;;;;;;;;;;;;;10.51;90.44;98126.38;8246907;28;19980;-76
2022/09/29 17:25:46;;;;;;;;;;;;;;;10.44;91.21;98126.59;8251747;28;19925;-76
2022/09/29 17:29:48;;;;;;;;;;;;;;;10.39;91.41;98134.47;8247955;28;19930;-76
2022/09/29 17:33:49;;;;;;;;;;;;;;;10.35;91.71;98145.81;8249965;28;20212;-76
2022/09/29 17:37:50;;;;;;;;;;;;;;;10.27;91.63;98146.00;8234634;28;20012;-77
2022/09/29 17:41:52;;;;;;;;;;;;;;;10.13;90.94;98162.72;8259820;28;19956;-77
2022/09/29 17:45:53;;;;;;;;;;;;;;;9.94;91.48;98170.91;8249110;28;20361;-77
2022/09/29 17:49:55;;;;;;;;;;;;;;;9.94;92.10;98168.31;8247314;28;19930;-77
2022/09/29 17:53:59;;;;;;;;;;;;;;;9.88;92.42;98184.00;8261601;28;19936;-77
2022/09/29 17:58:00;;;;;;;;;;;;;;;9.83;91.97;98178.06;8258914;28;19926;-77
2022/09/29 18:02:01;;;;;;;;;;;;;;;9.74;92.33;98183.44;8256343;28;19948;-76
2022/09/29 18:06:04;;;;;;;;;;;;;;;9.64;92.09;98179.31;8261399;28;19925;-76
2022/09/29 18:10:29;;;;;;;;;;;;;;;9.55;92.05;98182.97;8262038;28;20003;-77
2022/09/29 18:14:34;;;;;;;;;;;;;;;9.47;91.58;98176.19;8239690;28;19933;-77
2022/09/29 18:18:35;;;;;;;;;;;;;;;9.28;91.82;98178.28;8257119;28;19925;-77
2022/09/29 18:22:37;;;;;;;;;;;;;;;9.15;92.09;98188.00;8261750;28;19926;-77
2022/09/29 18:26:41;;;;;;;;;;;;;;;9.12;92.49;98182.03;8256236;28;19929;-77
2022/09/29 18:30:45;;;;;;;;;;;;;;;9.05;92.65;98192.53;8257231;28;19925;-76
2022/09/29 18:34:46;;;;;;;;;;;;;;;9.01;92.20;98197.78;8267154;28;19930;-77
2022/09/29 18:38:48;;;;;;;;;;;;;;;8.95;93.04;98208.22;8263526;28;19929;-77
2022/09/29 18:42:51;;;;;;;;;;;;;;;8.85;93.51;98206.69;8254342;28;19936;-76
2022/09/29 18:46:52;;;;;;;;;;;;;;;8.77;92.99;98214.56;8259853;28;19956;-76
2022/09/29 18:50:55;;;;;;;;;;;;;;;8.70;93.52;98224.16;8246807;28;20673;-75
2022/09/29 18:54:56;;;;;;;;;;;;;;;8.60;93.06;98227.75;8242739;28;20008;-75
2022/09/29 18:58:58;;;;;;;;;;;;;;;8.59;93.37;98236.41;8253018;28;20381;-76
2022/09/29 19:03:01;;;;;;;;;;;;;;;8.56;92.82;98238.19;8244984;28;20322;-76
2022/09/29 19:07:05;;;;;;;;;;;;;;;8.51;93.27;98240.84;8259559;28;19924;-76
2022/09/29 19:11:15;;;;;;;;;;;;;;;8.50;93.36;98246.06;8253063;28;20310;-76
2022/09/29 19:15:22;;;;;;;;;;;;;;;8.42;93.47;98261.66;8249304;28;20484;-76
2022/09/29 19:19:26;;;;;;;;;;;;;;;8.40;93.97;98263.41;8234097;28;20040;-76
2022/09/29 19:23:28;;;;;;;;;;;;;;;8.36;93.76;98267.78;8246246;28;20004;-75
2022/09/29 19:27:30;;;;;;;;;;;;;;;8.30;92.94;98277.34;8245226;28;19926;-76
2022/09/29 19:31:31;;;;;;;;;;;;;;;8.23;93.29;98281.72;8251811;28;20313;-76
2022/09/29 19:35:34;;;;;;;;;;;;;;;8.21;93.33;98283.47;8246104;28;19949;-76
2022/09/29 19:39:35;;;;;;;;;;;;;;;8.12;93.15;98287.03;8254500;28;19984;-76
2022/09/29 19:43:36;;;;;;;;;;;;;;;8.03;93.09;98300.06;8251089;28;20088;-76
2022/09/29 19:47:38;;;;;;;;;;;;;;;7.98;93.36;98299.28;8248200;28;19925;-76
2022/09/29 19:51:48;;;;;;;;;;;;;;;7.92;93.23;98304.53;8252204;28;19925;-76
2022/09/29 19:55:51;;;;;;;;;;;;;;;7.89;93.36;98309.69;8247890;28;20804;-75
2022/09/29 19:59:53;;;;;;;;;;;;;;;7.81;93.07;98311.53;8244210;28;19925;-75
2022/09/29 20:03:54;;;;;;;;;;;;;;;7.79;92.82;98321.03;8246655;28;19925;-75
2022/09/29 20:07:55;;;;;;;;;;;;;;;7.69;93.08;98314.22;8222821;28;20000;-75
2022/09/29 20:11:57;;;;;;;;;;;;;;;7.68;93.56;98318.53;8250085;28;19935;-75
2022/09/29 20:15:58;;;;;;;;;;;;;;;7.64;93.55;98318.59;8247630;28;20496;-75
2022/09/29 20:20:00;;;;;;;;;;;;;;;7.57;93.29;98328.13;8254339;28;19925;-76
2022/09/29 20:24:02;;;;;;;;;;;;;;;7.51;93.80;98329.03;8246574;28;20085;-76
2022/09/29 20:28:04;;;;;;;;;;;;;;;7.53;94.02;98334.19;8240736;28;20323;-76
2022/09/29 20:32:07;;;;;;;;;;;;;;;7.48;94.04;98339.41;8237396;28;19932;-76
2022/09/29 20:36:08;;;;;;;;;;;;;;;7.37;93.64;98341.25;8240931;28;19984;-75
2022/09/29 20:40:10;;;;;;;;;;;;;;;7.28;94.48;98331.81;8242353;28;19932;-74
2022/09/29 20:44:12;;;;;;;;;;;;;;;7.30;94.85;98338.69;8242050;28;20390;-75
2022/09/29 20:48:13;;;;;;;;;;;;;;;7.36;95.04;98339.53;8238238;28;19988;-74
2022/09/29 20:52:14;;;;;;;;;;;;;;;7.36;95.06;98346.38;8238281;28;19925;-76
2022/09/29 20:56:16;;;;;;;;;;;;;;;7.31;95.08;98353.31;8225545;28;20347;-73
2022/09/29 21:00:17;;;;;;;;;;;;;;;7.33;95.19;98360.19;8234415;28;19926;-77
2022/09/29 21:04:19;;;;;;;;;;;;;;;7.34;95.08;98367.06;8253822;28;19926;-78
2022/09/29 21:08:21;;;;;;;;;;;;;;;7.35;95.43;98370.50;8253772;28;19930;-78
2022/09/29 21:12:22;;;;;;;;;;;;;;;7.32;94.96;98370.53;8251154;28;20281;-75
2022/09/29 21:16:24;;;;;;;;;;;;;;;7.34;95.16;98381.69;8250698;28;19922;-76
2022/09/29 21:20:25;;;;;;;;;;;;;;;7.31;94.78;98382.56;8253133;28;19925;-77
2022/09/29 21:24:26;;;;;;;;;;;;;;;7.25;94.53;98392.97;8249956;28;20008;-76
2022/09/29 21:28:28;;;;;;;;;;;;;;;7.22;94.47;98387.81;8266079;28;19925;-77
2022/09/29 21:32:29;;;;;;;;;;;;;;;7.21;94.38;98394.72;8237381;28;19985;-77
2022/09/29 21:36:32;;;;;;;;;;;;;;;7.18;94.35;98392.16;8249663;28;19926;-77
2022/09/29 21:40:33;;;;;;;;;;;;;;;7.14;94.26;98398.19;8252438;28;19926;-77